createdAt,value
2023-03-26T00:01:36.963Z,100515.34
2023-03-26T00:04:06.737Z,100517.75
2023-03-26T00:06:39.045Z,100513.06
2023-03-26T00:09:13.264Z,100516.38
2023-03-26T00:11:41.957Z,100524.78
2023-03-26T00:14:14.131Z,100524.34
2023-03-26T00:16:42.664Z,100531.50
2023-03-26T00:19:11.701Z,100527.44
2023-03-26T00:21:38.983Z,100523.53
2023-03-26T00:24:09.865Z,100513.88
2023-03-26T00:26:38.454Z,100522.41
2023-03-26T00:29:06.726Z,100524.94
2023-03-26T00:31:35.725Z,100528.69
2023-03-26T00:34:05.546Z,100532.41
2023-03-26T00:36:35.939Z,100520.38
2023-03-26T00:39:06.271Z,100527.31
2023-03-26T00:41:36.970Z,100529.84
2023-03-26T00:44:04.592Z,100534.81
2023-03-26T00:46:32.585Z,100521.72
2023-03-26T00:49:01.743Z,100523.91
2023-03-26T00:51:29.901Z,100524.69
2023-03-26T00:53:58.127Z,100520.81
2023-03-26T00:56:25.951Z,100515.31
2023-03-26T00:58:53.366Z,100509.19
2023-03-26T01:01:29.096Z,100496.09
2023-03-26T01:04:17.965Z,100490.28
2023-03-26T01:06:46.909Z,100481.41
2023-03-26T01:09:20.163Z,100469.28
2023-03-26T01:11:49.652Z,100487.06
2023-03-26T01:14:26.911Z,100489.41
2023-03-26T01:17:06.936Z,100484.81
2023-03-26T01:19:44.725Z,100486.09
2023-03-26T01:22:18.259Z,100489.72
2023-03-26T01:24:52.261Z,100492.03
2023-03-26T01:27:41.112Z,100487.72
2023-03-26T01:30:38.752Z,100480.16
2023-03-26T01:33:19.293Z,100473.31
2023-03-26T01:36:03.952Z,100470.41
2023-03-26T01:39:00.659Z,100473.13
2023-03-26T01:41:54.658Z,100465.84
2023-03-26T01:44:27.934Z,100453.09
2023-03-26T01:46:56.686Z,100446.44
2023-03-26T01:49:24.100Z,100445.66
2023-03-26T01:51:51.436Z,100442.84
2023-03-26T01:54:22.736Z,100448.03
2023-03-26T01:57:01.313Z,100448.50
2023-03-26T02:00:13.004Z,100442.34
2023-03-26T02:02:48.988Z,100439.75
2023-03-26T02:05:31.296Z,100439.25
2023-03-26T02:08:09.582Z,100440.78
2023-03-26T02:10:41.328Z,100448.38
2023-03-26T02:13:09.176Z,100450.50
2023-03-26T02:15:36.470Z,100451.25
2023-03-26T02:18:04.150Z,100446.28
2023-03-26T02:20:31.578Z,100451.06
2023-03-26T02:22:59.857Z,100457.44
2023-03-26T02:25:28.000Z,100456.69
2023-03-26T02:27:57.361Z,100466.41
2023-03-26T02:30:26.217Z,100480.09
2023-03-26T02:32:59.205Z,100482.88
2023-03-26T02:35:30.985Z,100483.81
2023-03-26T02:38:00.901Z,100488.00
2023-03-26T02:40:28.576Z,100491.13
2023-03-26T02:42:56.706Z,100484.53
2023-03-26T02:45:24.645Z,100477.03
2023-03-26T02:48:07.989Z,100478.09
2023-03-26T02:50:54.568Z,100479.25
2023-03-26T02:53:41.274Z,100476.84
2023-03-26T02:56:27.488Z,100491.81
2023-03-26T02:59:24.240Z,100487.44
2023-03-26T03:02:13.362Z,100474.94
2023-03-26T03:04:40.811Z,100478.59
2023-03-26T03:07:08.208Z,100481.19
2023-03-26T03:09:35.663Z,100469.91
2023-03-26T03:12:25.716Z,100470.44
2023-03-26T03:14:53.501Z,100465.94
2023-03-26T03:17:21.030Z,100461.91
2023-03-26T03:19:48.364Z,100465.97
2023-03-26T03:22:16.510Z,100456.31
2023-03-26T03:24:43.995Z,100462.50
2023-03-26T03:27:12.446Z,100466.22
2023-03-26T03:29:47.787Z,100463.66
2023-03-26T03:32:44.235Z,100460.03
2023-03-26T03:35:12.488Z,100455.50
2023-03-26T03:37:42.011Z,100448.22
2023-03-26T03:40:10.985Z,100441.91
2023-03-26T03:42:39.363Z,100440.81
2023-03-26T03:45:08.401Z,100461.50
2023-03-26T03:47:59.014Z,100465.63
2023-03-26T03:50:39.726Z,100466.72
2023-03-26T03:53:27.345Z,100461.88
2023-03-26T03:55:57.660Z,100452.69
2023-03-26T03:58:36.902Z,100458.84
2023-03-26T04:01:13.373Z,100463.44
2023-03-26T04:03:58.622Z,100466.97
2023-03-26T04:06:36.942Z,100460.91
2023-03-26T04:09:04.503Z,100466.72
2023-03-26T04:11:31.976Z,100476.13
2023-03-26T04:14:31.557Z,100470.03
2023-03-26T04:17:02.204Z,100470.69
2023-03-26T04:19:31.314Z,100459.38
2023-03-26T04:22:03.119Z,100460.13
2023-03-26T04:24:38.402Z,100457.72
2023-03-26T04:27:31.499Z,100462.06
2023-03-26T04:30:15.764Z,100457.84
2023-03-26T04:32:44.766Z,100456.56
2023-03-26T04:35:17.180Z,100458.00
2023-03-26T04:37:49.693Z,100449.22
2023-03-26T04:40:26.331Z,100444.22
2023-03-26T04:43:19.041Z,100452.81
2023-03-26T04:46:07.533Z,100451.44
2023-03-26T04:48:41.132Z,100449.28
2023-03-26T04:51:18.379Z,100451.06
2023-03-26T04:54:00.196Z,100453.66
2023-03-26T04:56:52.861Z,100464.19
2023-03-26T04:59:29.985Z,100466.38
2023-03-26T05:02:00.106Z,100478.28
2023-03-26T05:04:29.931Z,100462.47
2023-03-26T05:06:58.614Z,100471.56
2023-03-26T05:09:36.631Z,100474.28
2023-03-26T05:12:24.317Z,100474.75
2023-03-26T05:15:00.486Z,100470.88
2023-03-26T05:17:46.703Z,100469.94
2023-03-26T05:20:30.243Z,100468.81
2023-03-26T05:22:58.071Z,100462.25
2023-03-26T05:25:34.982Z,100462.22
2023-03-26T05:28:04.318Z,100453.50
2023-03-26T05:30:53.353Z,100447.78
2023-03-26T05:33:22.250Z,100453.03
2023-03-26T05:36:13.329Z,100460.09
2023-03-26T05:38:47.334Z,100459.19
2023-03-26T05:41:18.738Z,100449.91
2023-03-26T05:43:48.999Z,100452.72
2023-03-26T05:46:22.054Z,100454.44
2023-03-26T05:48:52.011Z,100456.41
2023-03-26T05:51:20.714Z,100449.41
2023-03-26T05:53:56.798Z,100443.09
2023-03-26T05:56:50.698Z,100448.88
2023-03-26T05:59:54.108Z,100452.63
2023-03-26T06:02:42.271Z,100445.50
2023-03-26T06:05:32.565Z,100452.69
2023-03-26T06:08:09.226Z,100451.59
2023-03-26T06:10:39.357Z,100451.63
2023-03-26T06:13:06.914Z,100450.88
2023-03-26T06:15:37.647Z,100454.69
2023-03-26T06:18:17.769Z,100471.69
2023-03-26T06:21:08.173Z,100462.69
2023-03-26T06:23:49.019Z,100452.75
2023-03-26T06:26:54.397Z,100453.81
2023-03-26T06:29:42.986Z,100437.06
2023-03-26T06:32:26.749Z,100435.22
2023-03-26T06:35:06.407Z,100441.56
2023-03-26T06:37:33.883Z,100432.69
2023-03-26T06:40:03.879Z,100420.69
2023-03-26T06:43:07.595Z,100415.88
2023-03-26T06:46:01.459Z,100418.19
2023-03-26T06:48:47.515Z,100418.91
2023-03-26T06:51:41.521Z,100419.78
2023-03-26T06:54:09.168Z,100420.69
2023-03-26T06:56:58.924Z,100414.75
2023-03-26T06:59:44.867Z,100416.66
2023-03-26T07:02:38.376Z,100416.88
2023-03-26T07:05:24.454Z,100414.72
2023-03-26T07:08:21.180Z,100410.22
2023-03-26T07:11:06.956Z,100399.53
2023-03-26T07:13:37.770Z,100403.50
2023-03-26T07:16:31.122Z,100370.97
2023-03-26T07:19:30.579Z,100378.94
2023-03-26T07:21:58.168Z,100374.22
2023-03-26T07:24:44.184Z,100375.50
2023-03-26T07:27:46.632Z,100372.38
2023-03-26T07:30:43.026Z,100376.75
2023-03-26T07:33:34.938Z,100368.31
2023-03-26T07:36:20.740Z,100370.38
2023-03-26T07:39:23.362Z,100359.19
2023-03-26T07:42:43.398Z,100344.97
2023-03-26T07:45:43.739Z,100335.41
2023-03-26T07:48:40.796Z,100332.84
2023-03-26T07:51:12.881Z,100322.38
2023-03-26T07:54:16.279Z,100327.31
2023-03-26T07:57:07.893Z,100316.00
2023-03-26T07:59:57.693Z,100309.69
2023-03-26T08:03:11.927Z,100303.31
2023-03-26T08:06:00.056Z,100299.38
2023-03-26T08:08:51.240Z,100296.66
2023-03-26T08:11:48.076Z,100289.56
2023-03-26T08:14:32.658Z,100292.72
2023-03-26T08:17:11.494Z,100291.41
2023-03-26T08:19:40.808Z,100278.66
2023-03-26T08:22:17.301Z,100275.97
2023-03-26T08:25:16.683Z,100275.41
2023-03-26T08:27:49.622Z,100282.47
2023-03-26T08:30:23.951Z,100284.50
2023-03-26T08:33:11.616Z,100283.63
2023-03-26T08:35:42.804Z,100274.63
2023-03-26T08:38:14.790Z,100278.28
2023-03-26T08:41:06.479Z,100270.66
2023-03-26T08:44:02.661Z,100270.06
2023-03-26T08:46:48.907Z,100254.16
2023-03-26T08:49:40.284Z,100239.47
2023-03-26T08:52:21.527Z,100247.94
2023-03-26T08:55:13.157Z,100241.56
2023-03-26T08:57:50.036Z,100241.06
2023-03-26T09:00:27.337Z,100240.50
2023-03-26T09:03:00.547Z,100218.16
2023-03-26T09:05:52.792Z,100205.72
2023-03-26T09:08:54.388Z,100209.84
2023-03-26T09:11:44.006Z,100199.34
2023-03-26T09:14:39.091Z,100188.19
2023-03-26T09:17:33.922Z,100190.69
2023-03-26T09:20:23.839Z,100191.50
2023-03-26T09:23:19.175Z,100195.69
2023-03-26T09:26:03.885Z,100202.81
2023-03-26T09:28:31.099Z,100182.28
2023-03-26T09:31:27.556Z,100184.28
2023-03-26T09:34:31.953Z,100188.59
2023-03-26T09:37:08.280Z,100184.22
2023-03-26T09:39:46.401Z,100192.41
2023-03-26T09:42:25.882Z,100196.00
2023-03-26T09:45:23.559Z,100193.31
2023-03-26T09:48:18.861Z,100179.91
2023-03-26T09:51:27.783Z,100178.94
2023-03-26T09:54:24.300Z,100177.19
2023-03-26T09:57:08.561Z,100183.06
2023-03-26T09:59:54.155Z,100177.97
2023-03-26T10:02:46.719Z,100172.44
2023-03-26T10:05:56.389Z,100174.00
2023-03-26T10:08:32.519Z,100170.75
2023-03-26T10:11:18.764Z,100177.06
2023-03-26T10:14:07.642Z,100184.22
2023-03-26T10:16:50.664Z,100176.63
2023-03-26T10:19:30.109Z,100178.88
2023-03-26T10:22:21.841Z,100166.31
2023-03-26T10:25:11.059Z,100155.50
2023-03-26T10:27:51.539Z,100153.06
2023-03-26T10:30:36.365Z,100147.97
2023-03-26T10:33:31.901Z,100143.16
2023-03-26T10:36:17.740Z,100134.38
2023-03-26T10:39:02.968Z,100142.66
2023-03-26T10:41:54.053Z,100137.63
2023-03-26T10:44:49.494Z,100137.59
2023-03-26T10:47:34.198Z,100131.22
2023-03-26T10:50:39.833Z,100135.84
2023-03-26T10:53:15.824Z,100123.13
2023-03-26T10:55:47.839Z,100116.41
2023-03-26T10:58:18.055Z,100106.16
2023-03-26T11:01:06.402Z,100113.97
2023-03-26T11:03:52.161Z,100114.22
2023-03-26T11:06:32.721Z,100108.09
2023-03-26T11:09:45.345Z,100109.50
2023-03-26T11:12:26.222Z,100108.50
2023-03-26T11:15:03.490Z,100102.59
2023-03-26T11:17:55.836Z,100106.22
2023-03-26T11:20:41.746Z,100103.84
2023-03-26T11:23:24.491Z,100100.44
2023-03-26T11:25:57.794Z,100091.47
2023-03-26T11:29:03.083Z,100098.81
2023-03-26T11:32:06.212Z,100096.44
2023-03-26T11:34:38.701Z,100073.72
2023-03-26T11:37:15.162Z,100055.41
2023-03-26T11:39:50.506Z,100043.88
2023-03-26T11:42:21.770Z,100040.78
2023-03-26T11:45:08.177Z,100052.63
2023-03-26T11:47:50.672Z,100051.50
2023-03-26T11:50:27.069Z,100058.50
2023-03-26T11:52:59.090Z,100056.69
2023-03-26T11:55:27.539Z,100062.06
2023-03-26T11:57:57.975Z,100060.94
2023-03-26T12:00:27.767Z,100050.91
2023-03-26T12:02:59.539Z,100041.47
2023-03-26T12:05:34.217Z,100028.38
2023-03-26T12:08:17.325Z,100014.59
2023-03-26T12:10:58.443Z,99989.63
2023-03-26T12:13:51.926Z,99989.16
2023-03-26T12:16:21.003Z,99977.78
2023-03-26T12:19:06.276Z,99969.13
2023-03-26T12:21:46.190Z,99964.53
2023-03-26T12:24:29.558Z,99971.66
2023-03-26T12:27:02.084Z,99963.78
2023-03-26T12:29:34.885Z,99981.84
2023-03-26T12:32:13.204Z,99977.34
2023-03-26T12:34:41.381Z,99970.72
2023-03-26T12:37:38.733Z,99957.47
2023-03-26T12:40:25.817Z,99956.19
2023-03-26T12:44:53.289Z,99956.63
2023-03-26T12:45:44.109Z,99945.78
2023-03-26T12:48:15.818Z,99941.84
2023-03-26T12:51:02.442Z,99941.09
2023-03-26T12:53:57.720Z,99937.22
2023-03-26T12:56:44.082Z,99921.88
2023-03-26T12:59:29.874Z,99921.50
2023-03-26T13:02:37.659Z,99915.19
2023-03-26T13:05:29.786Z,99905.72
2023-03-26T13:08:00.383Z,99897.47
2023-03-26T13:10:43.722Z,99891.97
2023-03-26T13:13:36.758Z,99883.69
2023-03-26T13:16:28.416Z,99884.47
2023-03-26T13:18:58.749Z,99884.09
2023-03-26T13:21:31.376Z,99882.13
2023-03-26T13:24:06.002Z,99871.53
2023-03-26T13:26:54.993Z,99860.47
2023-03-26T13:29:43.329Z,99853.00
2023-03-26T13:32:25.151Z,99857.75
2023-03-26T13:35:29.727Z,99840.03
2023-03-26T13:38:13.599Z,99837.69
2023-03-26T13:41:03.222Z,99842.78
2023-03-26T13:43:45.659Z,99840.41
2023-03-26T13:46:13.027Z,99831.31
2023-03-26T13:49:00.151Z,99823.84
2023-03-26T13:51:31.895Z,99820.72
2023-03-26T13:54:09.256Z,99811.66
2023-03-26T13:56:43.615Z,99801.84
2023-03-26T13:59:37.011Z,99790.41
2023-03-26T14:02:11.606Z,99777.84
2023-03-26T14:04:52.554Z,99773.16
2023-03-26T14:07:27.433Z,99766.84
2023-03-26T14:09:58.394Z,99759.75
2023-03-26T14:12:32.073Z,99749.94
2023-03-26T14:15:04.280Z,99739.31
2023-03-26T14:18:06.172Z,99729.13
2023-03-26T14:21:07.967Z,99729.88
2023-03-26T14:23:54.523Z,99721.25
2023-03-26T14:26:43.364Z,99715.75
2023-03-26T14:29:21.838Z,99709.03
2023-03-26T14:31:51.861Z,99700.81
2023-03-26T14:34:45.330Z,99702.75
2023-03-26T14:37:54.280Z,99696.47
2023-03-26T14:40:33.470Z,99696.81
2023-03-26T14:43:09.581Z,99695.25
2023-03-26T14:45:54.215Z,99686.59
2023-03-26T14:48:37.065Z,99695.78
2023-03-26T14:51:10.044Z,99686.69
2023-03-26T14:53:42.265Z,99686.16
2023-03-26T14:56:24.747Z,99679.69
2023-03-26T14:59:27.610Z,99669.41
2023-03-26T15:02:13.733Z,99666.13
2023-03-26T15:04:59.461Z,99665.66
2023-03-26T15:07:47.848Z,99664.16
2023-03-26T15:10:23.204Z,99647.56
2023-03-26T15:13:12.364Z,99654.56
2023-03-26T15:15:58.163Z,99653.00
2023-03-26T15:18:44.041Z,99638.53
2023-03-26T15:21:32.106Z,99634.47
2023-03-26T15:24:02.278Z,99633.78
2023-03-26T15:27:06.584Z,99630.59
2023-03-26T15:29:43.571Z,99632.53
2023-03-26T15:32:26.845Z,99626.00
2023-03-26T15:35:09.835Z,99628.69
2023-03-26T15:37:48.974Z,99628.25
2023-03-26T15:40:32.979Z,99627.44
2023-03-26T15:43:12.595Z,99623.66
2023-03-26T15:45:49.818Z,99622.31
2023-03-26T15:48:32.040Z,99623.94
2023-03-26T15:51:06.267Z,99630.50
2023-03-26T15:54:10.878Z,99634.97
2023-03-26T15:56:52.990Z,99642.94
2023-03-26T16:00:15.399Z,99639.00
2023-03-26T16:03:08.944Z,99646.84
2023-03-26T16:06:02.267Z,99656.84
2023-03-26T16:08:47.078Z,99645.81
2023-03-26T16:11:15.505Z,99656.44
2023-03-26T16:13:49.910Z,99650.03
2023-03-26T16:16:21.369Z,99640.47
2023-03-26T16:19:18.427Z,99634.00
2023-03-26T16:22:00.287Z,99654.09
2023-03-26T16:24:34.720Z,99652.91
2023-03-26T16:27:09.178Z,99667.69
2023-03-26T16:30:15.501Z,99672.34
2023-03-26T16:32:58.638Z,99664.44
2023-03-26T16:35:49.189Z,99649.34
2023-03-26T16:38:18.442Z,99649.34
2023-03-26T16:41:02.326Z,99667.56
2023-03-26T16:43:44.254Z,99665.84
2023-03-26T16:46:30.048Z,99668.34
2023-03-26T16:49:28.589Z,99667.19
2023-03-26T16:51:58.864Z,99655.69
2023-03-26T16:54:50.180Z,99664.94
2023-03-26T16:57:26.220Z,99667.81
2023-03-26T17:00:16.488Z,99666.69
2023-03-26T17:03:08.075Z,99683.50
2023-03-26T17:05:43.870Z,99650.19
2023-03-26T17:08:35.187Z,99578.97
2023-03-26T17:11:36.770Z,99574.19
2023-03-26T17:14:18.064Z,99603.44
2023-03-26T17:17:04.053Z,99607.63
2023-03-26T17:20:09.265Z,99580.88
2023-03-26T17:22:47.653Z,99578.91
2023-03-26T17:25:42.334Z,99566.72
2023-03-26T17:28:29.988Z,99553.31
2023-03-26T17:31:00.660Z,99539.19
2023-03-26T17:33:31.621Z,99531.00
2023-03-26T17:36:30.727Z,99542.69
2023-03-26T17:39:17.541Z,99532.56
2023-03-26T17:42:20.965Z,99537.53
2023-03-26T17:44:56.715Z,99534.19
2023-03-26T17:47:27.198Z,99518.66
2023-03-26T17:50:06.785Z,99502.22
2023-03-26T17:52:56.668Z,99498.47
2023-03-26T17:55:33.102Z,99506.72
2023-03-26T17:58:04.109Z,99517.47
2023-03-26T18:00:35.631Z,99528.56
2023-03-26T18:03:13.523Z,99530.28
2023-03-26T18:05:41.245Z,99538.50
2023-03-26T18:08:16.133Z,99549.84
2023-03-26T18:10:49.341Z,99553.13
2023-03-26T18:13:50.399Z,99565.53
2023-03-26T18:16:31.974Z,99570.38
2023-03-26T18:19:17.547Z,99568.25
2023-03-26T18:21:51.346Z,99578.50
2023-03-26T18:24:32.464Z,99564.69
2023-03-26T18:27:16.441Z,99547.25
2023-03-26T18:29:46.889Z,99519.03
2023-03-26T18:32:22.712Z,99496.00
2023-03-26T18:34:56.917Z,99494.63
2023-03-26T18:37:29.111Z,99494.19
2023-03-26T18:40:12.417Z,99520.25
2023-03-26T18:42:43.197Z,99488.28
2023-03-26T18:45:38.539Z,99514.00
2023-03-26T18:48:24.720Z,99508.34
2023-03-26T18:51:05.843Z,99505.91
2023-03-26T18:53:40.811Z,99512.66
2023-03-26T18:56:27.814Z,99527.38
2023-03-26T18:58:58.847Z,99536.00
2023-03-26T19:01:32.110Z,99542.81
2023-03-26T19:04:04.085Z,99534.94
2023-03-26T19:06:35.903Z,99545.28
2023-03-26T19:09:23.680Z,99546.84
2023-03-26T19:12:05.688Z,99541.75
2023-03-26T19:14:36.953Z,99534.84
2023-03-26T19:17:07.149Z,99549.94
2023-03-26T19:19:37.759Z,99568.53
2023-03-26T19:22:07.204Z,99576.25
2023-03-26T19:24:34.929Z,99590.19
2023-03-26T19:27:03.021Z,99605.47
2023-03-26T19:29:35.727Z,99607.84
2023-03-26T19:32:27.579Z,99599.81
2023-03-26T19:34:58.780Z,99593.34
2023-03-26T19:37:32.451Z,99594.16
2023-03-26T19:40:12.767Z,99587.25
2023-03-26T19:42:44.785Z,99594.13
2023-03-26T19:45:21.749Z,99586.31
2023-03-26T19:47:57.289Z,99576.03
2023-03-26T19:50:34.192Z,99583.22
2023-03-26T19:53:25.578Z,99574.28
2023-03-26T19:56:13.229Z,99561.66
2023-03-26T19:58:42.268Z,99562.63
2023-03-26T20:01:30.733Z,99564.47
2023-03-26T20:04:01.673Z,99573.69
2023-03-26T20:06:41.749Z,99579.84
2023-03-26T20:09:14.219Z,99573.97
2023-03-26T20:11:41.910Z,99560.22
2023-03-26T20:14:15.301Z,99551.59
2023-03-26T20:16:45.301Z,99552.44
2023-03-26T20:19:15.023Z,99548.28
2023-03-26T20:21:43.408Z,99535.03
2023-03-26T20:24:16.744Z,99536.84
2023-03-26T20:26:45.599Z,99542.78
2023-03-26T20:29:14.021Z,99531.22
2023-03-26T20:31:42.130Z,99530.28
2023-03-26T20:34:17.219Z,99534.31
2023-03-26T20:36:45.755Z,99538.59
2023-03-26T20:39:13.576Z,99550.44
2023-03-26T20:41:45.518Z,99550.00
2023-03-26T20:44:15.242Z,99552.19
2023-03-26T20:46:43.932Z,99548.13
2023-03-26T20:49:11.947Z,99542.06
2023-03-26T20:51:41.876Z,99539.34
2023-03-26T20:54:16.089Z,99535.03
2023-03-26T20:56:43.999Z,99522.91
2023-03-26T20:59:14.643Z,99529.47
2023-03-26T21:01:42.136Z,99529.75
2023-03-26T21:04:09.474Z,99531.94
2023-03-26T21:06:37.113Z,99529.41
2023-03-26T21:09:04.921Z,99531.78
2023-03-26T21:12:03.018Z,99531.97
2023-03-26T21:14:30.740Z,99527.69
2023-03-26T21:16:58.488Z,99518.44
2023-03-26T21:19:26.140Z,99519.44
2023-03-26T21:22:03.527Z,99519.88
2023-03-26T21:24:51.077Z,99506.34
2023-03-26T21:28:08.179Z,99495.84
2023-03-26T21:30:35.801Z,99486.84
2023-03-26T21:33:05.280Z,99481.06
2023-03-26T21:35:34.780Z,99483.06
2023-03-26T21:38:04.751Z,99478.75
2023-03-26T21:40:32.359Z,99470.06
2023-03-26T21:42:59.934Z,99471.34
2023-03-26T21:45:27.892Z,99463.41
2023-03-26T21:47:55.869Z,99458.16
2023-03-26T21:50:23.930Z,99455.34
2023-03-26T21:52:51.912Z,99440.25
2023-03-26T21:55:21.586Z,99435.25
2023-03-26T21:58:04.799Z,99434.81
2023-03-26T22:00:45.726Z,99442.97
2023-03-26T22:03:42.155Z,99428.38
2023-03-26T22:06:31.146Z,99429.19
2023-03-26T22:08:59.628Z,99423.63
2023-03-26T22:11:26.979Z,99416.28
2023-03-26T22:13:55.627Z,99410.97
2023-03-26T22:16:25.478Z,99402.44
2023-03-26T22:18:53.521Z,99400.31
2023-03-26T22:21:20.867Z,99400.00
2023-03-26T22:23:52.740Z,99393.50
2023-03-26T22:26:23.160Z,99402.19
2023-03-26T22:28:51.052Z,99394.00
2023-03-26T22:31:18.463Z,99395.47
2023-03-26T22:33:45.919Z,99393.72
2023-03-26T22:36:22.823Z,99389.16
2023-03-26T22:38:54.711Z,99384.38
2023-03-26T22:41:22.960Z,99385.66
2023-03-26T22:43:52.173Z,99379.41
2023-03-26T22:46:20.827Z,99380.50
2023-03-26T22:48:51.769Z,99381.03
2023-03-26T22:51:19.683Z,99377.88
2023-03-26T22:53:47.032Z,99380.47
2023-03-26T22:56:15.545Z,99376.28
2023-03-26T22:58:42.985Z,99381.97
2023-03-26T23:01:19.661Z,99377.94
2023-03-26T23:03:47.362Z,99386.28
2023-03-26T23:06:16.100Z,99385.59
2023-03-26T23:08:43.575Z,99376.13
2023-03-26T23:11:13.667Z,99380.16
2023-03-26T23:13:42.024Z,99380.84
2023-03-26T23:16:10.339Z,99380.31
2023-03-26T23:18:38.688Z,99369.53
2023-03-26T23:21:12.082Z,99366.03
2023-03-26T23:23:39.818Z,99357.69
2023-03-26T23:26:07.373Z,99350.50
2023-03-26T23:28:35.367Z,99360.13
2023-03-26T23:31:05.516Z,99356.47
2023-03-26T23:33:35.535Z,99361.97
2023-03-26T23:36:08.916Z,99365.31
2023-03-26T23:38:43.629Z,99369.25
2023-03-26T23:41:15.769Z,99361.63
2023-03-26T23:43:55.568Z,99344.88
2023-03-26T23:46:25.749Z,99358.97
2023-03-26T23:48:53.595Z,99358.53
2023-03-26T23:51:22.388Z,99356.63
2023-03-26T23:53:49.962Z,99364.16
2023-03-26T23:56:17.844Z,99372.03
2023-03-26T23:58:45.303Z,99376.88
